METAR Data
IDs: Format: Raw Decoded Include TAF

Data at: 1514 UTC 21 Apr 2021

METAR for:KSHL (Sheldon Muni, IA, US)
Text:KSHL 211455Z AUTO 33012KT 10SM CLR M00/M08 A3025 RMK AO2
Temperature: 0.0°C ( 32°F)
Dewpoint: -8.0°C ( 18°F) [RH = 55%]
Pressure (altimeter):30.25 inches Hg (1024.5 mb)
Winds:from the NNW (330 degrees) at 14 MPH (12 knots; 6.2 m/s)
Visibility:10 or more sm (16+ km)
Ceiling:at least 12,000 feet AGL
Clouds:sky clear below 12,000 feet AGL
QC Flag:automated observation with no human augmentation